Terminal Aerodrome Forecast
Issued by NWS

Home | Current Version | Previous Version | Text Only | Print | Product List | Glossary On
Versions: 1 2 3 4 5 6 7 8 9 10 11 12 13 14 15 16 17
000
FTUS41 KPBZ 302300
TAFLBE
TAF
KLBE 302330Z 0100/0124 29008KT P6SM BKN035
     FM010400 VRB03KT 5SM BR BKN035
     FM010700 VRB03KT 1SM BR BKN010
     FM011300 14005KT 5SM BR BKN020
     FM011500 12005KT P6SM BKN035=

USA.gov is the U.S. government's official web portal to all federal, state and local government web resources and services.